Time;durP1;ratioP1;P1;durP2;ratioP2;P2;SDS_P1;SDS_P2;PMS_P1;PMS_P2;Temp;Humidity;BMP_temperature;BMP_pressure;BME280_temperature;BME280_humidity;BME280_pressure;Samples;Min_cycle;Max_cycle;Signal;HPM_P1;HPM_P2
2022/08/14 00:00:32;;;;;;;30.57;13.22;;;;;;;21.98;67.54;100431.36;1809967;79;25508;-54
2022/08/14 00:03:01;;;;;;;19.15;11.95;;;;;;;21.87;68.04;100428.80;1809818;79;25781;-55
2022/08/14 00:05:28;;;;;;;25.23;12.33;;;;;;;21.78;68.20;100436.41;1810035;79;25793;-53
2022/08/14 00:07:55;;;;;;;30.43;12.93;;;;;;;21.78;68.51;100434.22;1809862;79;25489;-54
2022/08/14 00:10:23;;;;;;;23.52;12.45;;;;;;;21.72;68.78;100436.75;1810011;79;27550;-55
2022/08/14 00:12:54;;;;;;;22.42;12.73;;;;;;;21.67;69.07;100434.36;1809871;79;25623;-55
2022/08/14 00:15:33;;;;;;;20.37;13.32;;;;;;;21.68;69.61;100430.56;1810283;79;25766;-55
2022/08/14 00:18:01;;;;;;;21.42;11.68;;;;;;;21.70;69.39;100429.83;1809695;79;25741;-55
2022/08/14 00:20:35;;;;;;;16.50;11.53;;;;;;;21.71;69.80;100424.13;1810083;79;25808;-55
2022/08/14 00:23:05;;;;;;;19.62;11.63;;;;;;;21.69;69.57;100426.77;1809990;79;27548;-55
2022/08/14 00:25:32;;;;;;;18.12;11.05;;;;;;;21.68;69.78;100429.20;1811982;78;25664;-55
2022/08/14 00:28:02;;;;;;;20.92;12.23;;;;;;;21.63;69.64;100428.48;1811598;78;25724;-55
2022/08/14 00:30:29;;;;;;;19.98;11.93;;;;;;;21.63;69.93;100434.50;1811270;78;25960;-55
2022/08/14 00:32:56;;;;;;;23.00;12.63;;;;;;;21.59;69.84;100429.99;1811739;79;25736;-55
2022/08/14 00:35:23;;;;;;;33.88;13.10;;;;;;;21.60;69.78;100435.78;1811127;79;27475;-53
2022/08/14 00:37:51;;;;;;;32.42;11.60;;;;;;;21.61;69.89;100428.39;1811570;79;25723;-55
2022/08/14 00:40:20;;;;;;;23.15;11.55;;;;;;;21.60;69.82;100434.41;1811789;78;25732;-55
2022/08/14 00:42:48;;;;;;;24.50;12.30;;;;;;;21.59;70.18;100434.09;1811544;79;25829;-54
2022/08/14 00:45:16;;;;;;;16.57;11.15;;;;;;;21.55;69.99;100436.91;1811753;79;25774;-54
2022/08/14 00:47:47;;;;;;;19.23;11.68;;;;;;;21.53;70.45;100433.03;1810262;79;27420;-54
2022/08/14 00:50:19;;;;;;;27.37;12.80;;;;;;;21.50;70.16;100435.37;1809852;79;25766;-55
2022/08/14 00:52:51;;;;;;;21.20;12.05;;;;;;;21.48;70.18;100427.35;1810086;79;25771;-55
2022/08/14 00:55:20;;;;;;;27.80;14.28;;;;;;;21.47;70.28;100430.31;1810262;79;25848;-53
2022/08/14 01:00:35;;;;;;;26.60;12.07;;;;;;;21.45;70.29;100427.81;1809945;79;27526;-56
2022/08/14 01:03:04;;;;;;;22.65;12.85;;;;;;;21.45;70.30;100437.39;1810222;79;25906;-55
2022/08/14 01:05:32;;;;;;;28.25;12.50;;;;;;;21.44;70.40;100438.44;1809792;79;25809;-55
2022/08/14 01:08:01;;;;;;;19.45;12.18;;;;;;;21.44;70.78;100446.64;1810304;79;25902;-55
2022/08/14 01:13:19;;;;;;;22.32;11.90;;;;;;;21.38;70.76;100446.16;1809873;79;27380;-55
2022/08/14 01:15:50;;;;;;;20.15;11.83;;;;;;;21.37;70.63;100446.66;1810027;79;25713;-54
2022/08/14 01:21:08;;;;;;;33.92;11.93;;;;;;;21.35;70.80;100447.94;1809903;79;26771;-55
2022/08/14 01:23:39;;;;;;;18.48;12.25;;;;;;;21.31;70.77;100449.41;1810585;79;25753;-55
2022/08/14 01:26:08;;;;;;;18.42;12.90;;;;;;;21.23;70.97;100451.88;1811694;77;27497;-55
2022/08/14 01:28:36;;;;;;;19.80;12.70;;;;;;;21.21;71.21;100445.23;1812147;79;25881;-56
2022/08/14 01:31:11;;;;;;;22.55;12.82;;;;;;;21.21;71.49;100444.41;1811798;78;25632;-54
2022/08/14 01:33:43;;;;;;;20.90;13.22;;;;;;;21.21;71.43;100445.77;1811672;77;25852;-55
2022/08/14 01:36:09;;;;;;;29.75;12.90;;;;;;;21.18;72.22;100441.58;1811708;78;25785;-55
2022/08/14 01:38:39;;;;;;;23.27;13.72;;;;;;;21.13;71.74;100441.36;1811883;79;27453;-55
2022/08/14 01:41:11;;;;;;;26.57;14.20;;;;;;;21.03;71.83;100443.70;1811718;78;25833;-55
2022/08/14 01:43:59;;;;;;;21.82;13.32;;;;;;;20.91;72.63;100446.25;1811812;78;25632;-55
2022/08/14 01:46:25;;;;;;;25.62;12.37;;;;;;;20.81;72.80;100443.96;1789521;78;25805;-55
2022/08/14 01:48:52;;;;;;;23.25;12.82;;;;;;;20.80;72.74;100447.74;1766981;79;25893;-55
2022/08/14 01:51:25;;;;;;;22.82;12.78;;;;;;;20.79;72.87;100448.79;1767183;80;28568;-54
2022/08/14 01:54:00;;;;;;;27.85;13.55;;;;;;;20.82;72.79;100442.91;1782297;79;26022;-55
2022/08/14 01:56:37;;;;;;;22.70;13.43;;;;;;;20.87;72.77;100441.73;1809882;79;25770;-55
2022/08/14 01:59:19;;;;;;;23.50;12.93;;;;;;;20.89;73.00;100436.91;1810070;79;25804;-55
2022/08/14 02:01:50;;;;;;;29.32;14.33;;;;;;;20.87;73.33;100433.53;1805630;79;25684;-55
2022/08/14 02:04:20;;;;;;;22.55;13.30;;;;;;;20.81;74.37;100428.92;1809974;79;27908;-55
2022/08/14 02:06:49;;;;;;;24.43;14.10;;;;;;;20.78;74.13;100429.34;1810109;79;25706;-55
2022/08/14 02:09:18;;;;;;;23.47;14.05;;;;;;;20.76;74.16;100419.14;1810061;79;26051;-55
2022/08/14 02:11:45;;;;;;;25.05;12.80;;;;;;;20.78;74.07;100419.27;1810255;79;26713;-54
2022/08/14 02:14:14;;;;;;;23.22;13.32;;;;;;;20.82;74.03;100417.45;1810194;79;25757;-53
2022/08/14 02:16:46;;;;;;;28.02;14.05;;;;;;;20.85;74.07;100416.49;1809941;79;28296;-54
2022/08/14 02:19:17;;;;;;;27.60;14.25;;;;;;;20.85;73.97;100416.49;1810175;79;25787;-55
2022/08/14 02:21:47;;;;;;;26.05;13.48;;;;;;;20.83;74.48;100413.16;1810308;79;25694;-55
2022/08/14 02:24:15;;;;;;;22.98;13.35;;;;;;;20.84;75.16;100419.45;1808765;79;25768;-55
2022/08/14 02:26:48;;;;;;;23.15;13.13;;;;;;;20.85;74.67;100417.03;1807973;79;25733;-55
2022/08/14 02:29:22;;;;;;;19.85;13.08;;;;;;;20.84;74.40;100408.01;1807495;79;27479;-55
2022/08/14 02:31:54;;;;;;;27.55;13.22;;;;;;;20.83;73.95;100413.67;1807310;78;25731;-55
2022/08/14 02:34:31;;;;;;;20.20;12.03;;;;;;;20.82;74.14;100410.11;1807477;79;25718;-55
2022/08/14 02:37:06;;;;;;;21.33;13.03;;;;;;;20.77;74.02;100412.63;1807546;79;25775;-54
2022/08/14 02:39:41;;;;;;;28.45;12.73;;;;;;;20.77;74.03;100413.98;1807459;79;25511;-55
2022/08/14 02:42:12;;;;;;;19.90;13.55;;;;;;;20.78;73.94;100408.33;1806881;79;28080;-55
2022/08/14 02:44:44;;;;;;;20.12;12.82;;;;;;;20.74;73.78;100410.33;1806314;79;25768;-54
2022/08/14 02:47:11;;;;;;;23.47;12.80;;;;;;;20.69;73.76;100413.67;1774652;79;25611;-53
2022/08/14 02:49:39;;;;;;;25.62;14.10;;;;;;;20.67;73.85;100412.17;1767300;80;25949;-55
2022/08/14 02:52:07;;;;;;;26.73;12.78;;;;;;;20.65;73.99;100416.50;1767042;81;25751;-54
2022/08/14 02:54:35;;;;;;;25.43;13.43;;;;;;;20.66;74.06;100409.98;1788252;79;27509;-55
2022/08/14 02:57:05;;;;;;;18.77;12.40;;;;;;;20.69;74.20;100408.20;1799887;79;25717;-55
2022/08/14 02:59:38;;;;;;;26.45;12.65;;;;;;;20.70;74.68;100409.03;1800318;78;26402;-54
2022/08/14 03:02:05;;;;;;;26.80;13.85;;;;;;;20.66;74.33;100410.52;1800347;79;25763;-53
2022/08/14 03:04:32;;;;;;;24.25;13.40;;;;;;;20.68;74.40;100419.33;1800290;79;25830;-54
2022/08/14 03:06:59;;;;;;;20.15;12.68;;;;;;;20.68;74.34;100419.33;1799883;79;27325;-53
2022/08/14 03:09:28;;;;;;;22.85;13.68;;;;;;;20.68;74.65;100406.52;1800053;78;26101;-55
2022/08/14 03:11:55;;;;;;;23.73;14.18;;;;;;;20.67;74.35;100410.81;1799933;79;25759;-55
2022/08/14 03:14:24;;;;;;;23.18;13.70;;;;;;;20.62;74.37;100405.47;1800034;78;25785;-54
2022/08/14 03:16:51;;;;;;;19.57;12.90;;;;;;;20.62;74.40;100414.17;1800144;79;25813;-54
2022/08/14 03:19:17;;;;;;;22.95;13.10;;;;;;;20.61;74.53;100413.34;1800447;78;27536;-54
2022/08/14 03:21:45;;;;;;;19.35;12.25;;;;;;;20.61;74.42;100414.72;1799697;78;25489;-55
2022/08/14 03:24:12;;;;;;;20.77;12.53;;;;;;;20.63;74.28;100418.59;1805228;79;25732;-53
2022/08/14 03:26:45;;;;;;;23.70;13.83;;;;;;;20.63;74.25;100414.50;1811720;79;25949;-52
2022/08/14 03:29:19;;;;;;;22.13;13.25;;;;;;;20.64;74.17;100427.97;1812076;79;25798;-55
2022/08/14 03:31:44;;;;;;;15.83;13.00;;;;;;;20.64;74.14;100422.50;1808893;78;27494;-55
2022/08/14 03:34:11;;;;;;;30.50;14.00;;;;;;;20.59;74.19;100414.62;1806115;79;25786;-55
2022/08/14 03:36:39;;;;;;;21.42;13.93;;;;;;;20.60;74.38;100419.04;1806158;79;25439;-54
2022/08/14 03:39:09;;;;;;;18.90;13.45;;;;;;;20.60;74.64;100428.06;1806322;79;25802;-52
2022/08/14 03:41:37;;;;;;;24.90;15.20;;;;;;;20.66;75.54;100418.72;1806287;78;25918;-54
2022/08/14 03:44:06;;;;;;;22.48;14.07;;;;;;;20.65;76.22;100419.23;1806394;79;28100;-54
2022/08/14 03:46:37;;;;;;;27.65;15.93;;;;;;;20.65;75.64;100416.50;1806062;78;25760;-55
2022/08/14 03:49:06;;;;;;;29.57;14.85;;;;;;;20.64;75.85;100417.04;1806177;78;25775;-55
2022/08/14 03:51:34;;;;;;;21.23;14.30;;;;;;;20.60;75.46;100413.57;1806375;79;25783;-53
2022/08/14 03:54:08;;;;;;;22.62;13.98;;;;;;;20.61;76.44;100415.26;1801917;79;25783;-54
2022/08/14 03:56:36;;;;;;;20.95;14.78;;;;;;;20.60;76.26;100408.94;1794853;79;27539;-54
2022/08/14 03:59:08;;;;;;;22.42;14.68;;;;;;;20.56;76.71;100412.30;1794877;79;25684;-54
2022/08/14 04:01:34;;;;;;;27.07;15.25;;;;;;;20.53;77.11;100403.18;1795029;79;25658;-55
2022/08/14 04:04:04;;;;;;;31.42;15.38;;;;;;;20.48;78.73;100403.81;1795188;79;25688;-54
2022/08/14 04:06:29;;;;;;;23.87;15.90;;;;;;;20.46;78.39;100410.83;1794830;79;25457;-53
2022/08/14 04:08:56;;;;;;;25.37;15.13;;;;;;;20.49;78.25;100410.42;1795187;78;27452;-55
2022/08/14 04:11:23;;;;;;;27.40;15.55;;;;;;;20.56;78.31;100408.20;1794701;78;25790;-55
2022/08/14 04:13:50;;;;;;;28.77;15.23;;;;;;;20.66;78.23;100407.25;1794971;78;25701;-53
2022/08/14 04:16:21;;;;;;;21.87;15.78;;;;;;;20.76;77.94;100417.77;1795011;79;25856;-54
2022/08/14 04:18:52;;;;;;;24.30;16.20;;;;;;;20.84;77.87;100420.31;1794901;79;25800;-55
2022/08/14 04:21:23;;;;;;;23.87;14.98;;;;;;;20.93;77.84;100413.53;1794974;79;27564;-55
2022/08/14 04:23:52;;;;;;;30.52;15.40;;;;;;;20.99;77.49;100418.67;1787863;78;26161;-55
2022/08/14 04:26:21;;;;;;;23.02;14.45;;;;;;;20.99;77.35;100411.84;1772837;80;25806;-55
2022/08/14 04:28:49;;;;;;;25.90;15.13;;;;;;;21.01;78.41;100424.78;1772721;80;26453;-55
2022/08/14 04:31:19;;;;;;;20.37;14.33;;;;;;;21.01;77.89;100410.28;1772742;80;25671;-55
2022/08/14 04:33:47;;;;;;;35.68;15.95;;;;;;;21.02;77.83;100413.33;1772629;79;27447;-55
2022/08/14 04:36:14;;;;;;;25.72;15.25;;;;;;;21.03;77.73;100419.09;1772724;80;26439;-56
2022/08/14 04:44:13;;;;;;;22.07;14.83;;;;;;;21.20;78.29;100421.66;1777991;80;26202;-55
2022/08/14 04:48:11;;;;;;;29.67;15.80;;;;;;;21.29;78.27;100422.83;1796923;79;29602;-55
2022/08/14 04:49:10;;;;;;;26.40;16.00;;;;;;;21.29;78.01;100422.28;1806310;79;25769;-56
2022/08/14 04:51:37;;;;;;;23.18;15.23;;;;;;;21.28;78.02;100417.03;1809907;79;25786;-55
2022/08/14 04:54:04;;;;;;;23.27;15.83;;;;;;;21.28;77.94;100416.50;1809894;79;25865;-55
2022/08/14 04:56:31;;;;;;;21.95;15.72;;;;;;;21.27;77.90;100412.08;1809943;79;25530;-54
2022/08/14 04:59:03;;;;;;;29.85;15.15;;;;;;;21.27;78.21;100410.70;1809947;79;27486;-55
2022/08/14 05:01:30;;;;;;;21.48;14.98;;;;;;;21.27;78.29;100412.08;1810120;79;25750;-55
2022/08/14 05:03:57;;;;;;;21.02;14.75;;;;;;;21.25;78.76;100409.56;1810185;79;25630;-55
2022/08/14 05:06:24;;;;;;;25.40;15.98;;;;;;;21.28;78.87;100408.83;1809884;79;25832;-55
2022/08/14 05:08:53;;;;;;;21.33;15.25;;;;;;;21.28;78.95;100408.83;1810169;79;25729;-55
2022/08/14 05:11:20;;;;;;;23.38;15.00;;;;;;;21.33;78.78;100407.64;1810279;79;27476;-54
2022/08/14 05:13:48;;;;;;;22.00;15.13;;;;;;;21.39;79.34;100405.39;1810056;79;25769;-55
2022/08/14 05:16:16;;;;;;;23.85;15.05;;;;;;;21.40;78.97;100404.34;1810203;79;26367;-55
2022/08/14 05:18:45;;;;;;;25.68;15.05;;;;;;;21.47;78.94;100413.36;1810072;79;25820;-54
2022/08/14 05:21:11;;;;;;;27.02;14.83;;;;;;;21.56;78.76;100414.79;1809917;79;25824;-54
2022/08/14 05:23:39;;;;;;;24.87;14.85;;;;;;;21.66;78.87;100415.73;1810529;79;27460;-54
2022/08/14 05:26:12;;;;;;;26.10;14.10;;;;;;;21.67;78.61;100418.79;1811849;78;25663;-55
2022/08/14 05:28:35;;;;;;;20.12;14.50;;;;;;;21.73;78.49;100422.55;1811485;77;25718;-52
2022/08/14 05:31:06;;;;;;;20.68;14.78;;;;;;;21.82;78.44;100414.39;1811537;77;25780;-55
2022/08/14 05:33:35;;;;;;;24.10;14.55;;;;;;;21.87;78.21;100413.19;1811846;77;25711;-56
2022/08/14 05:36:06;;;;;;;22.50;13.78;;;;;;;21.98;78.09;100414.92;1811668;77;27487;-55
2022/08/14 05:38:41;;;;;;;25.08;12.80;;;;;;;22.14;78.18;100411.64;1811738;78;25422;-56
2022/08/14 05:41:12;;;;;;;28.00;13.78;;;;;;;22.26;77.88;100409.56;1811673;78;25766;-54
2022/08/14 05:43:41;;;;;;;24.00;13.90;;;;;;;22.33;76.98;100408.98;1811998;79;26123;-53
2022/08/14 05:46:14;;;;;;;24.77;14.58;;;;;;;22.27;76.61;100405.77;1794275;79;25915;-53
2022/08/14 05:48:41;;;;;;;24.05;14.47;;;;;;;22.27;76.91;100401.11;1767372;81;27520;-54
2022/08/14 05:51:08;;;;;;;25.10;14.03;;;;;;;22.21;76.96;100396.53;1766802;81;25760;-55
2022/08/14 05:53:35;;;;;;;19.75;13.48;;;;;;;22.15;77.06;100397.41;1774544;79;25704;-55
2022/08/14 05:56:02;;;;;;;26.77;15.23;;;;;;;22.14;77.52;100399.86;1800098;79;27985;-55
2022/08/14 05:58:29;;;;;;;22.80;14.50;;;;;;;22.15;77.63;100396.03;1800013;79;25760;-53
2022/08/14 06:00:57;;;;;;;27.65;14.30;;;;;;;22.15;77.57;100398.77;1800172;78;27517;-55
2022/08/14 06:03:23;;;;;;;20.45;14.10;;;;;;;22.20;77.58;100397.05;1800221;79;25429;-55
2022/08/14 06:05:53;;;;;;;19.35;13.80;;;;;;;22.28;77.28;100395.09;1800071;79;25665;-54
2022/08/14 06:08:26;;;;;;;24.02;13.85;;;;;;;22.34;76.95;100403.27;1800269;78;26527;-54
2022/08/14 06:11:01;;;;;;;21.60;13.38;;;;;;;22.39;76.85;100401.22;1777580;79;25956;-54
2022/08/14 06:13:31;;;;;;;24.75;13.85;;;;;;;22.40;76.86;100396.09;1800078;79;27476;-55
2022/08/14 06:15:58;;;;;;;21.20;13.72;;;;;;;22.42;76.70;100400.82;1800001;79;25679;-54
2022/08/14 06:18:26;;;;;;;30.10;16.12;;;;;;;22.45;76.44;100403.63;1800429;78;25844;-54
2022/08/14 06:20:53;;;;;;;24.20;14.13;;;;;;;22.48;76.55;100401.28;1800152;79;25767;-53
2022/08/14 06:23:21;;;;;;;20.23;14.00;;;;;;;22.57;76.46;100390.89;1801233;79;25707;-55
2022/08/14 06:25:48;;;;;;;18.32;13.53;;;;;;;22.67;76.12;100398.58;1811658;78;27471;-50
2022/08/14 06:28:21;;;;;;;22.73;13.85;;;;;;;22.73;75.98;100393.55;1811685;79;25746;-55
2022/08/14 06:30:49;;;;;;;;;;;;;;;22.81;75.91;100386.44;1814463;79;25480;-55
2022/08/14 06:33:19;;;;;;;21.33;13.60;;;;;;;22.93;75.71;100383.77;1814606;78;25787;-55
2022/08/14 06:35:48;;;;;;;21.17;14.40;;;;;;;23.01;75.08;100397.70;1811755;79;25650;-53
2022/08/14 06:38:18;;;;;;;19.87;13.55;;;;;;;23.08;74.82;100391.62;1812211;79;27362;-53
2022/08/14 06:40:47;;;;;;;26.73;14.25;;;;;;;23.15;74.46;100398.39;1811720;79;25732;-55
2022/08/14 06:43:16;;;;;;;19.98;13.43;;;;;;;23.17;74.06;100399.00;1812032;79;25433;-55
2022/08/14 06:45:46;;;;;;;20.55;13.28;;;;;;;23.26;73.81;100403.15;1811166;79;25921;-54
2022/08/14 06:48:19;;;;;;;26.73;14.15;;;;;;;23.33;73.68;100398.10;1810303;79;25710;-54
2022/08/14 06:50:47;;;;;;;20.23;13.38;;;;;;;23.39;73.50;100398.03;1810052;79;28353;-55
2022/08/14 06:53:15;;;;;;;28.25;12.98;;;;;;;23.45;73.04;100397.64;1809856;79;25801;-52
2022/08/14 06:55:42;;;;;;;23.42;12.33;;;;;;;23.52;72.76;100393.45;1809919;79;25682;-54
2022/08/14 06:58:17;;;;;;;22.20;12.82;;;;;;;23.57;72.57;100389.45;1810403;79;25768;-54
2022/08/14 07:06:19;;;;;;;18.05;11.50;;;;;;;23.81;71.80;100378.55;1809890;79;27221;-55
2022/08/14 07:08:46;;;;;;;22.15;12.43;;;;;;;23.89;71.07;100378.25;1810329;79;25707;-54
2022/08/14 07:11:13;;;;;;;20.77;11.65;;;;;;;23.97;70.96;100379.83;1809795;79;25933;-55
2022/08/14 07:13:41;;;;;;;22.13;12.35;;;;;;;24.11;70.87;100377.20;1810108;79;25720;-55
2022/08/14 07:16:11;;;;;;;18.35;12.00;;;;;;;24.23;70.53;100371.71;1809686;79;27475;-53
2022/08/14 07:18:37;;;;;;;26.70;12.75;;;;;;;24.35;70.10;100377.22;1809718;79;25754;-54
2022/08/14 07:21:06;;;;;;;19.92;12.07;;;;;;;24.41;70.00;100370.76;1809846;79;25719;-53
2022/08/14 07:23:34;;;;;;;20.30;11.10;;;;;;;24.50;69.72;100376.20;1810447;79;25902;-54
2022/08/14 07:26:03;;;;;;;22.42;12.43;;;;;;;24.58;69.26;100375.02;1811570;78;25721;-55
2022/08/14 07:28:37;;;;;;;23.35;11.73;;;;;;;24.68;68.80;100369.79;1811780;77;26930;-54
2022/08/14 07:31:08;;;;;;;17.57;10.88;;;;;;;24.85;67.94;100369.05;1811467;79;53915;-53
2022/08/14 07:33:45;;;;;;;18.73;11.78;;;;;;;24.90;67.68;100362.27;1794481;77;25785;-55
2022/08/14 07:36:15;;;;;;;21.37;12.70;;;;;;;24.98;67.66;100361.08;1814937;77;25811;-55
2022/08/14 07:38:43;;;;;;;19.07;11.63;;;;;;;25.06;67.51;100360.70;1815023;77;25815;-55
2022/08/14 07:41:12;;;;;;;20.57;11.75;;;;;;;25.16;67.21;100362.28;1814694;77;27454;-55
2022/08/14 07:43:41;;;;;;;24.30;12.15;;;;;;;25.21;66.28;100364.31;1814701;77;25741;-55
2022/08/14 07:46:07;;;;;;;21.27;10.90;;;;;;;25.26;66.17;100360.83;1791646;79;25750;-55
2022/08/14 07:48:39;;;;;;;19.82;10.80;;;;;;;25.39;66.34;100355.58;1794287;79;25872;-54
2022/08/14 07:51:07;;;;;;;22.58;11.60;;;;;;;25.54;66.17;100357.83;1799507;79;25924;-55
2022/08/14 07:53:34;;;;;;;20.27;11.08;;;;;;;25.63;64.94;100358.55;1799471;79;27466;-55
2022/08/14 07:56:01;;;;;;;17.57;11.50;;;;;;;25.71;64.32;100364.73;1799340;79;26374;-55
2022/08/14 07:58:29;;;;;;;16.10;10.72;;;;;;;25.71;64.20;100357.32;1799823;79;25791;-55
2022/08/14 08:00:56;;;;;;;20.50;11.30;;;;;;;25.84;64.54;100357.55;1799207;79;25892;-53
2022/08/14 08:03:26;;;;;;;19.10;11.05;;;;;;;26.00;64.38;100357.25;1799876;79;25733;-54
2022/08/14 08:05:53;;;;;;;22.10;12.13;;;;;;;26.15;63.32;100360.02;1799445;79;27627;-54
2022/08/14 08:08:21;;;;;;;22.35;13.32;;;;;;;26.19;62.16;100349.63;1799499;79;25730;-55
2022/08/14 08:10:49;;;;;;;24.72;12.35;;;;;;;26.24;62.65;100344.73;1799379;79;25672;-55
2022/08/14 08:13:20;;;;;;;21.95;12.10;;;;;;;26.34;62.74;100349.56;1799624;79;25922;-54
2022/08/14 08:15:52;;;;;;;22.82;11.40;;;;;;;26.47;62.39;100347.00;1799536;79;25726;-55
2022/08/14 08:18:20;;;;;;;24.65;12.00;;;;;;;26.64;61.48;100341.47;1799633;79;27626;-54
2022/08/14 08:20:51;;;;;;;19.60;11.12;;;;;;;26.78;60.54;100328.17;1799465;79;25760;-55
2022/08/14 08:23:21;;;;;;;19.73;11.12;;;;;;;26.90;60.36;100329.42;1801423;77;25754;-54
2022/08/14 08:25:51;;;;;;;19.27;10.93;;;;;;;27.12;58.96;100330.23;1817214;77;25922;-55
2022/08/14 08:28:22;;;;;;;18.90;11.20;;;;;;;27.22;59.65;100334.22;1817464;78;25444;-55
2022/08/14 08:31:00;;;;;;;20.08;10.60;;;;;;;27.35;58.41;100332.45;1817285;78;27491;-54
2022/08/14 08:33:31;;;;;;;21.12;10.78;;;;;;;27.45;59.05;100329.84;1808225;77;25711;-55
2022/08/14 08:36:02;;;;;;;19.42;10.98;;;;;;;27.58;58.95;100315.30;1811140;77;25806;-55
2022/08/14 08:38:29;;;;;;;20.40;12.60;;;;;;;27.71;58.13;100323.18;1811727;79;25806;-55
2022/08/14 08:41:00;;;;;;;19.75;11.25;;;;;;;27.73;57.52;100314.09;1811560;77;25742;-55
2022/08/14 08:43:32;;;;;;;21.82;11.05;;;;;;;27.95;56.99;100314.53;1811835;77;27418;-56
2022/08/14 08:46:07;;;;;;;20.57;11.00;;;;;;;28.13;57.40;100308.34;1810017;78;25662;-56
2022/08/14 08:48:50;;;;;;;20.40;10.18;;;;;;;28.36;56.48;100306.59;1810155;79;25840;-55
2022/08/14 08:51:27;;;;;;;20.57;10.48;;;;;;;28.57;55.48;100308.92;1809558;79;25785;-55
2022/08/14 08:54:02;;;;;;;23.02;11.50;;;;;;;28.77;54.84;100308.78;1806115;79;25707;-55
2022/08/14 08:56:49;;;;;;;21.12;10.38;;;;;;;28.88;54.24;100302.16;1799650;78;27498;-56
2022/08/14 08:59:23;;;;;;;25.10;11.33;;;;;;;28.99;53.51;100300.30;1799334;79;25825;-55
2022/08/14 09:02:00;;;;;;;18.62;10.65;;;;;;;29.26;51.94;100302.57;1799881;79;25730;-56
2022/08/14 09:04:32;;;;;;;19.82;10.10;;;;;;;29.33;52.47;100295.70;1799874;78;25838;-55
2022/08/14 09:06:59;;;;;;;25.68;10.20;;;;;;;29.48;52.48;100299.59;1799785;79;25627;-55
2022/08/14 09:09:31;;;;;;;21.23;10.23;;;;;;;29.58;52.19;100294.64;1799993;79;27445;-56
2022/08/14 09:12:00;;;;;;;23.70;11.80;;;;;;;29.74;51.30;100285.77;1799860;79;25822;-55
2022/08/14 09:14:30;;;;;;;21.07;10.68;;;;;;;30.03;49.99;100279.69;1799948;78;25722;-55
2022/08/14 09:16:59;;;;;;;17.17;9.93;;;;;;;30.27;49.84;100275.78;1799929;79;26621;-56
2022/08/14 09:19:28;;;;;;;22.60;9.35;;;;;;;30.62;48.51;100275.43;1800122;79;26176;-56
2022/08/14 09:21:56;;;;;;;18.98;10.05;;;;;;;30.72;47.84;100274.55;1799761;79;27515;-55
2022/08/14 09:24:23;;;;;;;23.02;10.18;;;;;;;30.80;47.34;100271.17;1806123;79;25819;-54
2022/08/14 09:26:51;;;;;;;29.55;10.25;;;;;;;30.84;47.62;100274.25;1811361;79;25639;-56
2022/08/14 09:29:19;;;;;;;21.68;9.93;;;;;;;30.83;47.91;100269.80;1811475;79;26631;-56
2022/08/14 09:31:51;;;;;;;20.37;9.28;;;;;;;30.95;46.45;100268.08;1772646;80;26246;-55
2022/08/14 09:34:40;;;;;;;16.12;8.73;;;;;;;31.11;46.56;100273.84;1767364;80;33703;-55
2022/08/14 09:37:30;;;;;;;16.87;9.00;;;;;;;31.50;47.04;100268.88;1805435;78;25843;-56
2022/08/14 09:40:15;;;;;;;25.15;9.88;;;;;;;32.06;46.26;100254.22;1767393;81;25735;-56
2022/08/14 09:43:19;;;;;;;24.35;9.78;;;;;;;32.58;43.55;100246.75;1806335;78;25838;-55
2022/08/14 09:45:49;;;;;;;24.18;9.08;;;;;;;32.91;41.89;100242.14;1753689;79;25872;-55
2022/08/14 09:48:20;;;;;;;19.87;9.68;;;;;;;33.46;41.13;100236.62;1802182;78;27573;-55
2022/08/14 09:50:51;;;;;;;22.00;9.10;;;;;;;33.81;40.81;100234.93;1805914;79;26226;-55
2022/08/14 09:53:40;;;;;;;21.40;8.40;;;;;;;34.12;41.27;100237.17;1805249;79;26409;-55
2022/08/14 09:56:08;;;;;;;15.70;7.90;;;;;;;34.82;39.94;100242.22;1795006;78;26606;-56
2022/08/14 09:58:40;;;;;;;20.12;9.50;;;;;;;35.47;38.93;100242.98;1794903;79;25811;-55
2022/08/14 10:01:11;;;;;;;32.35;9.03;;;;;;;35.62;38.06;100238.98;1795101;79;27457;-55
2022/08/14 10:03:49;;;;;;;21.75;8.68;;;;;;;36.01;37.20;100230.45;1795066;79;25786;-55
2022/08/14 10:06:19;;;;;;;15.03;8.43;;;;;;;36.24;36.81;100240.17;1794823;78;25499;-55
2022/08/14 10:08:51;;;;;;;14.63;8.23;;;;;;;36.96;35.72;100231.69;1795233;78;25795;-54
2022/08/14 10:11:22;;;;;;;18.70;8.65;;;;;;;37.08;35.23;100226.83;1794861;79;25639;-55
2022/08/14 10:13:53;;;;;;;14.93;7.92;;;;;;;36.45;35.65;100222.23;1794683;79;27422;-55
2022/08/14 10:16:28;;;;;;;21.27;7.53;;;;;;;36.55;36.24;100213.28;1794812;79;25802;-55
2022/08/14 10:19:11;;;;;;;13.28;7.37;;;;;;;36.64;34.26;100219.72;1795068;79;25749;-55
2022/08/14 10:21:42;;;;;;;15.53;7.90;;;;;;;36.29;35.85;100216.80;1794993;79;25769;-55
2022/08/14 10:24:10;;;;;;;17.05;8.03;;;;;;;36.68;35.55;100209.53;1799639;79;25515;-55
2022/08/14 10:26:37;;;;;;;17.05;7.92;;;;;;;37.15;33.85;100203.91;1767047;81;27465;-55
2022/08/14 10:29:09;;;;;;;18.02;7.58;;;;;;;37.44;34.67;100193.42;1806131;78;25723;-55
2022/08/14 10:31:36;;;;;;;;;;;;;;;37.97;33.93;100199.73;1808563;79;26490;-57
2022/08/14 10:34:10;;;;;;;11.65;7.80;;;;;;;38.52;32.32;100184.53;1810397;79;25830;-56
2022/08/14 10:36:41;;;;;;;17.73;6.80;;;;;;;38.75;32.67;100188.44;1773012;80;25681;-56
2022/08/14 10:39:22;;;;;;;18.48;7.65;;;;;;;39.17;31.46;100174.38;1773311;80;27432;-55
2022/08/14 10:42:04;;;;;;;16.20;7.08;;;;;;;39.04;30.83;100178.32;1772763;80;25720;-56
2022/08/14 10:44:37;;;;;;;16.80;7.47;;;;;;;38.93;31.33;100180.70;1772633;80;25631;-55
2022/08/14 10:47:10;;;;;;;12.43;6.70;;;;;;;39.28;31.38;100168.59;1771658;80;25873;-55
2022/08/14 10:49:48;;;;;;;13.08;6.95;;;;;;;39.92;30.20;100159.95;1771611;81;25776;-55
2022/08/14 10:52:23;;;;;;;18.07;7.97;;;;;;;40.27;29.69;100165.73;1770640;80;27580;-55
2022/08/14 10:54:51;;;;;;;25.60;7.67;;;;;;;40.71;29.95;100163.11;1764464;80;26437;-55
2022/08/14 10:57:23;;;;;;;13.18;5.40;;;;;;;40.83;28.83;100143.34;1761924;81;26319;-55
2022/08/14 11:00:03;;;;;;;17.15;7.08;;;;;;;41.11;28.87;100137.48;1761729;81;26543;-57
2022/08/14 11:02:36;;;;;;;24.65;7.97;;;;;;;41.09;28.42;100135.03;1760672;80;25799;-55
2022/08/14 11:05:10;;;;;;;17.42;6.78;;;;;;;40.82;28.94;100127.60;1761626;81;27485;-57
2022/08/14 11:07:41;;;;;;;17.98;7.15;;;;;;;41.09;28.51;100116.70;1761999;80;25707;-55
2022/08/14 11:10:14;;;;;;;25.30;6.35;;;;;;;41.06;28.34;100110.36;1760384;80;25801;-55
2022/08/14 11:12:47;;;;;;;12.55;6.12;;;;;;;40.63;28.49;100114.14;1762136;81;25900;-56
2022/08/14 11:15:26;;;;;;;18.73;7.35;;;;;;;40.61;27.56;100113.70;1762041;81;25766;-55
2022/08/14 11:17:55;;;;;;;16.35;6.70;;;;;;;39.62;28.81;100108.07;1761947;81;27619;-55
2022/08/14 11:20:28;;;;;;;13.40;6.95;;;;;;;38.98;29.59;100108.22;1762081;80;26137;-56
2022/08/14 11:22:59;;;;;;;18.80;6.80;;;;;;;38.41;30.25;100107.45;1761682;80;25796;-55
2022/08/14 11:25:33;;;;;;;18.40;6.92;;;;;;;37.76;30.60;100103.38;1776826;80;25812;-55
2022/08/14 11:28:03;;;;;;;21.75;6.10;;;;;;;37.43;31.62;100093.60;1776828;80;25646;-56
2022/08/14 11:30:30;;;;;;;19.32;6.78;;;;;;;37.22;31.90;100093.47;1815819;79;27540;-56
2022/08/14 11:32:58;;;;;;;13.40;7.17;;;;;;;37.02;31.73;100087.40;1812960;79;25791;-55
2022/08/14 11:35:27;;;;;;;15.60;6.62;;;;;;;36.71;31.67;100080.00;1801990;79;25777;-56
2022/08/14 11:38:01;;;;;;;20.20;6.28;;;;;;;36.26;32.60;100073.27;1802009;79;25797;-55
2022/08/14 11:40:33;;;;;;;19.15;6.78;;;;;;;36.09;32.50;100064.25;1803917;79;25682;-56
2022/08/14 11:43:04;;;;;;;17.40;6.95;;;;;;;36.06;32.95;100062.94;1804620;79;27522;-55
2022/08/14 11:45:36;;;;;;;21.73;8.00;;;;;;;35.84;33.23;100070.25;1803925;79;25723;-55